Broken Bow, OK (74728)

10:36 PM CST on December 05, 2016 (GMT -0600)
Idabel | | Change Station

Elev 472 ft 33.91 °N, 94.85 °W | Updated 21 minutes ago

Overcast
Overcast
45 °F
Feels Like 45 °F
N
0
Wind Variable Wind from North

Today
High -- | Low -- °F
--% Chance of Precip.
Yesterday
High -- | Low -- °F
Precip. -- in
Pressure 29.74 in
Visibility 7.0 miles
Clouds Overcast 600 ft
Dew Point 43 °F
Humidity 93%
Rainfall 0.00 in
Snow Depth Not available.
7:10 AM 5:09 PM
Waxing Crescent, 38% visible
METAR K4O4 060415Z AUTO 00000KT 7SM OVC006 07/06 A2974 RMK AO2
Pressure 29.74 in
Visibility 7.0 miles
Clouds Overcast 600 ft
Dew Point 43 °F
Humidity 93%
Rainfall 0.00 in
Snow Depth Not available.
7:10 AM 5:09 PM
Waxing Crescent, 38% visible
METAR K4O4 060415Z AUTO 00000KT 7SM OVC006 07/06 A2974 RMK AO2

10-Day Weather Forecast

Almanac

Astronomy

Dec. 05, 2016 Rise Set
Actual Time
Civil Twilight
Nautical Twilight
Astronomical Twilight
Moon
Length of Visible Light
Length of Day
Tomorrow will be .
, % of the Moon is Illuminated

Today's Extremes

State Highs State Lows

Community

WunderPhotos

Upload Photos

1,955,921 photos uploaded!

WunderBlog® & News

Nearby

Air Quality

  Air Quality AQ Index Pollutant
Not available.

Snow Depth

Station Depth Elevation

Earthquake Activity

City Distance Mag. Time & Date
Minimum magnitude displayed is 2.5.

Coastal Water Temperatures

Place Temperature

Stations

Nearby Weather Stations

Station Location Temp. Windchill Dew Point Humidity Wind Precip. Elev Updated Type
                   

Watches & Warnings

There are currently no watches in effect.